Saint-Hyacinthe, Canada
Current Conditions -  °F | °C
As of 8:00 PM on Tuesday 21 Oct 2014 (Local Time) from CYHU Reporting Station
Light Rain Light Rain  
Wind Chill: 35°   Ceiling: 4800
Heat Index: 43°   Visibility: 9mi
Dew Point: 39°   Wind: 15mph
Humidity: 87%   Direction: 20°NNE
Pressure: 30.13"   Gusts: NA
Location:  45.62°N, 72.95°W
Report Text: CYHU 220000Z AUTO 02013KT 9SM -RA OVC048 06/04 A3013 RMK SLP203
Loading
Personal Weather Stations






























Interactive Weather Map New forecast layout! Learn more

10-Day Weather Forecast

Advertisements
Track Severe Weather on mobile